Time;durP1;ratioP1;P1;durP2;ratioP2;P2;SDS_P1;SDS_P2;PMS_P1;PMS_P2;Temp;Humidity;BMP_temperature;BMP_pressure;BME280_temperature;BME280_humidity;BME280_pressure;Samples;Min_cycle;Max_cycle;Signal;HPM_P1;HPM_P2
2020/12/15 00:01:31;;;;;;;61.88;34.63;;;179.50;1971.20;;;;;;5057208;28;20029;-67
2020/12/15 00:03:57;;;;;;;59.50;34.63;;;179.50;1971.20;;;;;;5057229;28;20025;-66
2020/12/15 00:06:23;;;;;;;62.13;34.50;;;179.50;1971.20;;;;;;5056879;28;20040;-67
2020/12/15 00:08:48;;;;;;;66.43;35.88;;;179.50;1971.20;;;;;;5057096;28;20025;-67
2020/12/15 00:11:18;;;;;;;68.65;38.10;;;179.50;1971.20;;;;;;5056979;28;20371;-67
2020/12/15 00:13:45;;;;;;;79.13;40.65;;;179.50;1971.20;;;;;;5056794;28;20482;-71
2020/12/15 00:16:12;;;;;;;236.90;138.80;;;179.50;1996.80;;;;;;5056845;28;20051;-68
2020/12/15 00:18:38;;;;;;;122.55;71.93;;;179.80;2099.20;;;;;;5056916;28;20433;-72
2020/12/15 00:21:03;;;;;;;97.53;59.40;;;179.80;1996.80;;;;;;5056824;28;20048;-72
2020/12/15 00:23:29;;;;;;;85.72;50.20;;;179.80;1971.20;;;;;;5056755;28;20056;-68
2020/12/15 00:25:55;;;;;;;84.93;46.17;;;179.70;1971.20;;;;;;5056817;28;20021;-70
2020/12/15 00:28:21;;;;;;;71.68;38.28;;;179.70;1971.20;;;;;;5056760;28;20060;-67
2020/12/15 00:30:46;;;;;;;65.57;34.45;;;179.70;1971.20;;;;;;5056659;28;20033;-69
2020/12/15 00:33:13;;;;;;;65.78;33.83;;;179.60;1971.20;;;;;;5038288;28;20449;-70
2020/12/15 00:35:38;;;;;;;56.97;29.95;;;179.60;1971.20;;;;;;5056604;28;20067;-68
2020/12/15 00:38:04;;;;;;;57.10;28.70;;;179.60;1996.80;;;;;;5056342;28;20021;-70
2020/12/15 00:40:30;;;;;;;54.15;27.85;;;179.60;1996.80;;;;;;5056367;28;20116;-68
2020/12/15 00:42:55;;;;;;;53.28;29.08;;;179.50;1996.80;;;;;;5056430;28;20029;-69
2020/12/15 00:45:21;;;;;;;55.85;30.17;;;179.60;1971.20;;;;;;5056404;28;20032;-69
2020/12/15 00:47:47;;;;;;;57.80;30.92;;;179.60;1971.20;;;;;;5056084;28;20375;-69
2020/12/15 00:50:13;;;;;;;56.28;29.40;;;179.50;1996.80;;;;;;5055611;28;20104;-69
2020/12/15 00:52:39;;;;;;;58.42;27.90;;;179.50;1971.20;;;;;;5056299;28;20366;-69
2020/12/15 00:55:05;;;;;;;60.10;29.60;;;179.50;1996.80;;;;;;5055931;28;20147;-69
2020/12/15 00:57:31;;;;;;;61.03;28.67;;;179.50;1996.80;;;;;;5055946;28;20036;-69
2020/12/15 00:59:58;;;;;;;58.53;28.38;;;179.50;1996.80;;;;;;5056045;28;20021;-68
2020/12/15 01:02:24;;;;;;;55.78;28.35;;;179.50;1996.80;;;;;;5056051;28;20459;-69
2020/12/15 01:04:50;;;;;;;49.10;25.48;;;179.50;1996.80;;;;;;5056016;28;20031;-69
2020/12/15 01:07:15;;;;;;;53.30;25.40;;;179.50;1971.20;;;;;;5056078;28;20052;-69
2020/12/15 01:09:41;;;;;;;51.42;26.15;;;179.40;1996.80;;;;;;5054990;28;20056;-69
2020/12/15 01:12:11;;;;;;;52.20;25.88;;;179.50;1971.20;;;;;;5055899;28;20032;-69
2020/12/15 01:14:37;;;;;;;48.90;24.27;;;179.40;1996.80;;;;;;5055611;28;20021;-69
2020/12/15 01:17:06;;;;;;;52.53;24.20;;;179.40;1996.80;;;;;;5055573;28;20120;-70
2020/12/15 01:19:32;;;;;;;47.63;22.67;;;179.40;1996.80;;;;;;5055804;28;20029;-69
2020/12/15 01:21:58;;;;;;;48.45;22.38;;;179.40;1996.80;;;;;;5055426;28;20466;-68
2020/12/15 01:24:25;;;;;;;48.67;22.92;;;179.40;1996.80;;;;;;5055532;28;20021;-68
2020/12/15 01:26:51;;;;;;;51.38;26.55;;;179.40;1996.80;;;;;;5055496;28;20078;-69
2020/12/15 01:29:17;;;;;;;51.08;26.52;;;179.40;1996.80;;;;;;5055226;28;20021;-69
2020/12/15 01:31:43;;;;;;;52.08;25.60;;;179.40;1996.80;;;;;;5055554;28;20028;-70
2020/12/15 01:34:09;;;;;;;51.13;26.35;;;179.40;1996.80;;;;;;5055285;28;20036;-69
2020/12/15 01:36:35;;;;;;;59.42;26.42;;;179.40;1996.80;;;;;;5055344;28;20033;-69
2020/12/15 01:39:00;;;;;;;59.25;27.35;;;179.30;1996.80;;;;;;5055249;28;20473;-69
2020/12/15 01:41:26;;;;;;;57.50;28.83;;;179.40;1996.80;;;;;;5055270;28;20520;-69
2020/12/15 01:43:53;;;;;;;58.75;26.92;;;179.40;1996.80;;;;;;5054910;28;20086;-70
2020/12/15 01:46:19;;;;;;;51.20;23.95;;;179.40;1996.80;;;;;;5055227;28;20113;-70
2020/12/15 01:48:45;;;;;;;54.70;24.90;;;179.30;1996.80;;;;;;5055193;28;20096;-69
2020/12/15 01:51:12;;;;;;;58.38;26.05;;;179.40;1996.80;;;;;;5055236;28;20441;-69
2020/12/15 01:53:38;;;;;;;51.85;25.10;;;179.40;1996.80;;;;;;5055146;28;20374;-69
2020/12/15 01:56:03;;;;;;;50.13;24.05;;;179.40;1996.80;;;;;;5054830;28;20059;-70
2020/12/15 01:58:29;;;;;;;51.95;23.65;;;179.40;1996.80;;;;;;5055053;28;20031;-68
2020/12/15 02:00:55;;;;;;;56.55;26.88;;;179.40;1971.20;;;;;;5054876;28;20079;-68
2020/12/15 02:03:21;;;;;;;56.17;25.10;;;179.40;1996.80;;;;;;5053707;28;20382;-68
2020/12/15 02:05:46;;;;;;;52.92;25.67;;;179.30;1996.80;;;;;;5036673;28;20021;-70
2020/12/15 02:08:12;;;;;;;55.70;24.52;;;179.30;1996.80;;;;;;5054633;28;20025;-69
2020/12/15 02:10:38;;;;;;;51.15;23.90;;;179.20;1996.80;;;;;;5035883;28;20049;-69
2020/12/15 02:13:04;;;;;;;54.30;24.20;;;179.30;1996.80;;;;;;5036853;28;20048;-69
2020/12/15 02:15:30;;;;;;;56.90;25.20;;;179.20;2022.40;;;;;;5054648;28;20025;-69
2020/12/15 02:17:55;;;;;;;54.22;23.98;;;179.20;2022.40;;;;;;5054799;28;20032;-69
2020/12/15 02:20:21;;;;;;;50.97;24.50;;;179.20;2022.40;;;;;;5054385;28;20488;-69
2020/12/15 02:22:47;;;;;;;52.65;22.35;;;179.20;1996.80;;;;;;5054520;28;20037;-69
2020/12/15 02:25:12;;;;;;;50.65;22.20;;;179.30;1996.80;;;;;;5054396;28;20029;-69
2020/12/15 02:27:38;;;;;;;370.38;241.43;;;179.30;1996.80;;;;;;5054315;28;20032;-68
2020/12/15 02:30:07;;;;;;;61.88;29.95;;;179.70;2252.80;;;;;;5054439;28;20028;-68
2020/12/15 02:32:33;;;;;;;53.35;23.88;;;179.80;1971.20;;;;;;5054315;28;20057;-67
2020/12/15 02:34:59;;;;;;;57.42;23.92;;;179.70;1945.60;;;;;;5054424;28;20445;-68
2020/12/15 02:37:25;;;;;;;56.20;23.80;;;179.70;1971.20;;;;;;5054166;28;20068;-68
2020/12/15 02:39:51;;;;;;;51.00;22.10;;;179.60;1971.20;;;;;;5053951;28;20458;-68
2020/12/15 02:42:17;;;;;;;51.67;22.05;;;179.70;1971.20;;;;;;5054073;28;20099;-68
2020/12/15 02:44:43;;;;;;;50.63;22.50;;;179.60;1971.20;;;;;;5054202;28;20029;-68
2020/12/15 02:47:08;;;;;;;50.15;20.88;;;179.60;1971.20;;;;;;5053958;28;20033;-68
2020/12/15 02:49:34;;;;;;;43.17;20.02;;;179.60;1971.20;;;;;;5053934;28;20382;-69
2020/12/15 02:52:00;;;;;;;48.83;21.38;;;179.50;1971.20;;;;;;5035442;28;20044;-68
2020/12/15 02:54:25;;;;;;;48.97;21.67;;;179.60;1971.20;;;;;;5054035;28;20057;-68
2020/12/15 02:56:53;;;;;;;46.63;21.60;;;179.50;1971.20;;;;;;5053933;28;20037;-67
2020/12/15 02:59:19;;;;;;;50.30;21.45;;;179.50;1971.20;;;;;;5053955;28;20028;-69
2020/12/15 03:01:44;;;;;;;47.97;21.77;;;179.40;1971.20;;;;;;5053863;28;20459;-69
2020/12/15 03:04:11;;;;;;;45.67;21.55;;;179.40;1996.80;;;;;;5053861;28;20033;-67
2020/12/15 03:06:36;;;;;;;49.30;22.48;;;179.40;1996.80;;;;;;5053964;28;20391;-70
2020/12/15 03:09:09;;;;;;;49.95;21.92;;;179.40;1996.80;;;;;;5053575;28;20029;-69
2020/12/15 03:11:36;;;;;;;50.92;21.10;;;179.40;1996.80;;;;;;5053848;28;20082;-69
2020/12/15 03:14:02;;;;;;;53.33;22.25;;;179.40;1996.80;;;;;;5053406;28;20032;-70
2020/12/15 03:16:28;;;;;;;50.70;22.45;;;179.30;1996.80;;;;;;5053549;28;20036;-69
2020/12/15 03:18:54;;;;;;;47.75;21.33;;;179.30;1996.80;;;;;;5053658;28;20021;-68
2020/12/15 03:21:21;;;;;;;51.55;21.45;;;179.30;1996.80;;;;;;5053525;28;20104;-69
2020/12/15 03:23:48;;;;;;;48.45;21.38;;;179.30;1996.80;;;;;;5053300;28;20513;-68
2020/12/15 03:26:13;;;;;;;47.40;23.08;;;179.30;1996.80;;;;;;5053797;28;20408;-68
2020/12/15 03:28:39;;;;;;;54.22;22.35;;;179.40;1996.80;;;;;;5053603;28;20029;-67
2020/12/15 03:31:05;;;;;;;49.92;22.05;;;179.40;1996.80;;;;;;5053990;28;20029;-68
2020/12/15 03:33:30;;;;;;;46.95;22.02;;;179.40;1996.80;;;;;;5053556;28;20025;-68
2020/12/15 03:35:56;;;;;;;60.17;24.20;;;179.40;1996.80;;;;;;5053564;28;20040;-68
2020/12/15 03:38:22;;;;;;;52.10;22.27;;;179.40;1996.80;;;;;;5053527;28;20459;-67
2020/12/15 03:40:48;;;;;;;51.80;22.98;;;179.40;1996.80;;;;;;5053302;28;20106;-67
2020/12/15 03:43:14;;;;;;;55.30;23.95;;;179.40;1996.80;;;;;;5053521;28;20036;-67
2020/12/15 03:45:43;;;;;;;51.08;21.88;;;179.40;1996.80;;;;;;5053135;28;20166;-67
2020/12/15 03:48:15;;;;;;;55.28;22.38;;;179.40;1996.80;;;;;;5052925;28;20032;-67
2020/12/15 03:50:41;;;;;;;55.78;22.08;;;179.40;1996.80;;;;;;5053426;28;20033;-67
2020/12/15 03:53:07;;;;;;;46.65;20.90;;;179.40;1996.80;;;;;;5053454;28;20036;-67
2020/12/15 03:55:32;;;;;;;49.38;21.27;;;179.40;1996.80;;;;;;5053049;28;20471;-69
2020/12/15 03:57:58;;;;;;;53.95;22.50;;;179.40;1996.80;;;;;;5053366;28;20037;-68
2020/12/15 04:00:24;;;;;;;48.65;22.30;;;179.40;1996.80;;;;;;5053359;28;20102;-69
2020/12/15 04:02:50;;;;;;;46.83;21.17;;;179.40;1996.80;;;;;;5053283;28;20031;-68
2020/12/15 04:05:16;;;;;;;48.33;21.73;;;179.40;1996.80;;;;;;5052695;28;20024;-69
2020/12/15 04:07:43;;;;;;;46.92;21.05;;;179.30;1996.80;;;;;;5053302;28;20033;-69
2020/12/15 04:10:09;;;;;;;44.35;20.83;;;179.30;1996.80;;;;;;5053204;28;20433;-68
2020/12/15 04:12:36;;;;;;;48.58;22.13;;;179.40;1996.80;;;;;;5053298;28;20021;-69
2020/12/15 04:15:04;;;;;;;47.20;22.67;;;179.40;1996.80;;;;;;5053152;28;20025;-69
2020/12/15 04:17:30;;;;;;;52.22;23.25;;;179.30;1996.80;;;;;;5053112;28;20075;-69
2020/12/15 04:19:56;;;;;;;50.28;22.75;;;179.40;1996.80;;;;;;5053372;28;20021;-68
2020/12/15 04:22:22;;;;;;;58.05;23.65;;;179.30;1996.80;;;;;;5052943;28;20090;-68
2020/12/15 04:24:47;;;;;;;51.47;23.67;;;179.30;1996.80;;;;;;5053327;28;20106;-68
2020/12/15 04:27:13;;;;;;;53.17;21.65;;;179.40;1996.80;;;;;;5056837;28;20505;-69
2020/12/15 04:29:39;;;;;;;47.17;23.17;;;179.40;1996.80;;;;;;5056625;28;20398;-67
2020/12/15 04:32:05;;;;;;;49.65;21.80;;;179.30;1996.80;;;;;;5056687;28;20032;-68
2020/12/15 04:34:30;;;;;;;52.95;22.80;;;179.30;1996.80;;;;;;5056706;28;20102;-68
2020/12/15 04:36:57;;;;;;;44.90;21.60;;;179.40;1996.80;;;;;;5056256;28;20099;-68
2020/12/15 04:39:24;;;;;;;49.03;23.15;;;179.40;1996.80;;;;;;5056485;28;20028;-68
2020/12/15 04:41:50;;;;;;;43.65;20.85;;;179.40;1996.80;;;;;;5056275;28;20053;-67
2020/12/15 04:44:15;;;;;;;54.50;23.25;;;179.40;1996.80;;;;;;5056525;28;20025;-68
2020/12/15 04:46:57;;;;;;;52.22;23.42;;;179.40;1996.80;;;;;;5056390;28;20098;-68
2020/12/15 04:49:27;;;;;;;52.15;23.38;;;179.40;1996.80;;;;;;5056447;28;20021;-68
2020/12/15 04:51:58;;;;;;;50.38;22.80;;;179.40;1996.80;;;;;;5056250;28;20075;-68
2020/12/15 04:54:30;;;;;;;51.17;24.40;;;179.40;1996.80;;;;;;5056247;28;20032;-68
2020/12/15 04:57:01;;;;;;;47.72;23.02;;;179.40;1996.80;;;;;;5056155;28;20037;-68
2020/12/15 04:59:34;;;;;;;49.45;23.80;;;179.40;1996.80;;;;;;5056033;28;20078;-68
2020/12/15 05:02:05;;;;;;;53.85;25.45;;;179.30;1996.80;;;;;;5056190;28;20031;-69
2020/12/15 05:04:41;;;;;;;54.20;26.83;;;179.40;1996.80;;;;;;5056659;28;20028;-68
2020/12/15 05:07:08;;;;;;;59.28;27.98;;;179.40;1996.80;;;;;;5055930;28;20032;-68
2020/12/15 05:09:35;;;;;;;50.78;24.58;;;179.40;1996.80;;;;;;5056018;28;20379;-68
2020/12/15 05:12:01;;;;;;;51.63;25.85;;;179.40;1996.80;;;;;;5055885;28;20029;-69
2020/12/15 05:14:28;;;;;;;51.67;24.58;;;179.40;1996.80;;;;;;5055688;28;20477;-69
2020/12/15 05:16:54;;;;;;;53.70;25.65;;;179.40;1996.80;;;;;;5055820;28;20390;-68
2020/12/15 05:19:20;;;;;;;58.25;27.02;;;179.40;1996.80;;;;;;5055750;28;20109;-68
2020/12/15 05:22:01;;;;;;;59.50;29.25;;;179.40;1996.80;;;;;;5055924;28;20124;-68
2020/12/15 05:24:28;;;;;;;56.80;26.67;;;179.40;1996.80;;;;;;5055176;28;20033;-68
2020/12/15 05:26:58;;;;;;;51.97;25.08;;;179.40;1996.80;;;;;;5055621;28;20033;-69
2020/12/15 05:29:25;;;;;;;52.10;26.02;;;179.40;1996.80;;;;;;5055305;28;20082;-68
2020/12/15 05:31:52;;;;;;;48.85;24.10;;;179.40;1996.80;;;;;;5055026;28;20378;-68
2020/12/15 05:34:23;;;;;;;47.47;22.52;;;179.40;1996.80;;;;;;5055423;28;20055;-69
2020/12/15 05:36:57;;;;;;;43.55;23.33;;;179.40;1996.80;;;;;;5055244;28;20402;-67
2020/12/15 05:39:24;;;;;;;48.33;23.58;;;179.40;1996.80;;;;;;5055325;28;20074;-69
2020/12/15 05:42:00;;;;;;;46.65;23.15;;;179.40;1996.80;;;;;;5055032;28;20049;-70
2020/12/15 05:44:29;;;;;;;43.05;22.98;;;179.40;1996.80;;;;;;5055114;28;20478;-70
2020/12/15 05:47:04;;;;;;;41.85;21.02;;;179.40;1996.80;;;;;;5055134;28;20443;-70
2020/12/15 05:49:31;;;;;;;43.72;22.42;;;179.30;1996.80;;;;;;5055255;28;20021;-69
2020/12/15 05:51:59;;;;;;;43.25;21.80;;;179.40;1996.80;;;;;;5054814;28;20029;-70
2020/12/15 05:54:25;;;;;;;42.28;21.33;;;179.30;1996.80;;;;;;5055210;28;20032;-70
2020/12/15 05:57:05;;;;;;;43.50;21.13;;;179.30;1996.80;;;;;;5054945;28;20383;-70
2020/12/15 05:59:32;;;;;;;46.42;22.25;;;179.40;1996.80;;;;;;5054909;28;20031;-70
2020/12/15 06:02:08;;;;;;;42.88;21.02;;;179.30;1996.80;;;;;;5054965;28;20029;-70
2020/12/15 06:04:35;;;;;;;50.13;23.55;;;179.30;1996.80;;;;;;5054867;28;20035;-69
2020/12/15 06:07:02;;;;;;;48.42;25.60;;;179.30;1996.80;;;;;;5054549;28;20021;-70
2020/12/15 06:09:29;;;;;;;56.15;27.10;;;179.30;1996.80;;;;;;5054611;28;20055;-70
2020/12/15 06:11:55;;;;;;;52.45;26.85;;;179.30;1996.80;;;;;;5054668;28;20028;-70
2020/12/15 06:14:24;;;;;;;53.65;26.83;;;179.20;1996.80;;;;;;5054595;28;20035;-69
2020/12/15 06:16:50;;;;;;;54.33;28.67;;;179.20;1996.80;;;;;;5054741;28;20040;-70
2020/12/15 06:19:18;;;;;;;54.40;27.10;;;179.20;2022.40;;;;;;5054324;28;20378;-70
2020/12/15 06:21:56;;;;;;;56.03;27.40;;;179.20;2022.40;;;;;;5054673;28;20078;-70
2020/12/15 06:24:30;;;;;;;55.55;27.50;;;179.30;2022.40;;;;;;5054248;28;20505;-70
2020/12/15 06:27:01;;;;;;;53.05;25.02;;;179.20;1996.80;;;;;;5054435;28;20086;-70
2020/12/15 06:29:34;;;;;;;58.13;26.92;;;179.20;2022.40;;;;;;5054776;28;20150;-70
2020/12/15 06:32:03;;;;;;;56.90;26.42;;;179.20;2022.40;;;;;;5054321;28;20124;-70
2020/12/15 06:34:32;;;;;;;59.17;26.85;;;179.20;2022.40;;;;;;5054161;28;20489;-70
2020/12/15 06:36:59;;;;;;;61.80;26.88;;;179.20;2022.40;;;;;;5054143;28;20029;-70
2020/12/15 06:39:27;;;;;;;63.03;28.23;;;179.20;2022.40;;;;;;5036269;28;20040;-70
2020/12/15 06:42:01;;;;;;;66.93;28.48;;;179.20;2022.40;;;;;;5054135;28;20041;-70
2020/12/15 06:44:37;;;;;;;67.82;29.73;;;179.30;2022.40;;;;;;5053917;28;20028;-70
2020/12/15 06:47:04;;;;;;;58.90;29.48;;;179.20;2022.40;;;;;;5053930;28;20182;-70
2020/12/15 06:49:33;;;;;;;69.15;29.98;;;179.30;2022.40;;;;;;5053490;28;20415;-70
2020/12/15 06:52:00;;;;;;;64.97;28.92;;;179.20;2022.40;;;;;;5053966;28;20032;-70
2020/12/15 06:54:31;;;;;;;59.97;27.40;;;179.30;2022.40;;;;;;5053985;28;20048;-70
2020/12/15 06:57:08;;;;;;;65.80;30.63;;;179.40;1996.80;;;;;;5053823;28;20116;-70
2020/12/15 06:59:38;;;;;;;66.68;31.55;;;179.30;2022.40;;;;;;5053955;28;20036;-70
2020/12/15 07:02:17;;;;;;;63.03;31.10;;;179.30;2022.40;;;;;;5053978;28;20040;-70
2020/12/15 07:04:47;;;;;;;67.15;31.90;;;179.40;2022.40;;;;;;5054229;28;20449;-70
2020/12/15 07:07:15;;;;;;;69.65;29.67;;;179.30;2022.40;;;;;;5053913;28;20036;-70
2020/12/15 07:09:41;;;;;;;59.47;27.95;;;179.30;2022.40;;;;;;5053701;28;20045;-70
2020/12/15 07:12:15;;;;;;;61.10;28.52;;;179.40;1996.80;;;;;;5053827;28;20528;-70
2020/12/15 07:14:44;;;;;;;62.33;29.67;;;179.40;2022.40;;;;;;5053546;28;20047;-70
2020/12/15 07:17:12;;;;;;;65.97;29.52;;;179.40;2022.40;;;;;;5053125;28;20045;-70
2020/12/15 07:19:38;;;;;;;65.45;30.38;;;179.40;1996.80;;;;;;5053588;28;20048;-69
2020/12/15 07:22:06;;;;;;;59.47;27.95;;;179.40;1996.80;;;;;;5053665;28;20348;-70
2020/12/15 07:24:32;;;;;;;55.08;28.30;;;179.40;1996.80;;;;;;5053486;28;20025;-70
2020/12/15 07:26:59;;;;;;;58.88;28.13;;;179.50;1996.80;;;;;;5035256;28;20127;-70
2020/12/15 07:29:25;;;;;;;55.15;27.15;;;179.50;1996.80;;;;;;5053640;28;20056;-70
2020/12/15 07:31:51;;;;;;;53.75;25.85;;;179.50;1996.80;;;;;;5053450;28;20370;-70
2020/12/15 07:34:17;;;;;;;58.38;27.67;;;179.50;1996.80;;;;;;5053952;28;20052;-69
2020/12/15 07:36:45;;;;;;;51.53;25.42;;;179.50;1996.80;;;;;;5053476;28;20037;-70
2020/12/15 07:39:11;;;;;;;47.30;24.27;;;179.50;1996.80;;;;;;5053424;28;20107;-70
2020/12/15 07:41:38;;;;;;;46.90;23.02;;;179.50;1996.80;;;;;;5053256;28;20399;-70
2020/12/15 07:44:16;;;;;;;46.00;23.13;;;179.60;1996.80;;;;;;5053472;28;20033;-70
2020/12/15 07:46:46;;;;;;;50.28;23.83;;;179.60;1996.80;;;;;;5053398;28;20029;-70
2020/12/15 07:49:13;;;;;;;49.55;24.00;;;179.60;1996.80;;;;;;5053543;28;20017;-71
2020/12/15 07:51:43;;;;;;;50.67;23.40;;;179.70;1971.20;;;;;;5053305;28;20112;-70
2020/12/15 07:54:10;;;;;;;48.50;23.70;;;179.60;1996.80;;;;;;5053418;28;20036;-70
2020/12/15 07:56:35;;;;;;;66.35;24.80;;;179.60;1996.80;;;;;;5053711;28;20386;-68
2020/12/15 07:59:01;;;;;;;50.95;23.15;;;179.70;1996.80;;;;;;5053296;28;20462;-69
2020/12/15 08:01:31;;;;;;;46.25;22.70;;;180.00;2022.40;;;;;;5056077;28;20407;-70
2020/12/15 08:04:09;;;;;;;48.15;24.17;;;180.00;1945.60;;;;;;5057191;28;20417;-70
2020/12/15 08:06:38;;;;;;;44.92;23.60;;;179.90;1945.60;;;;;;5057078;28;20028;-69
2020/12/15 08:09:05;;;;;;;55.22;28.55;;;179.90;1945.60;;;;;;5056863;28;20550;-69
2020/12/15 08:11:32;;;;;;;44.58;23.08;;;179.90;1945.60;;;;;;5057180;28;20025;-69
2020/12/15 08:14:00;;;;;;;45.35;23.30;;;179.90;1945.60;;;;;;5056934;28;20493;-70
2020/12/15 08:16:26;;;;;;;39.90;20.48;;;179.90;1920.00;;;;;;5057061;28;20385;-69
2020/12/15 08:18:58;;;;;;;50.58;24.75;;;179.90;1945.60;;;;;;5056840;28;20108;-69
2020/12/15 08:21:38;;;;;;;52.03;26.60;;;179.90;1945.60;;;;;;5057051;28;20029;-69
2020/12/15 08:24:08;;;;;;;56.05;28.45;;;179.90;1945.60;;;;;;5056550;28;20501;-69
2020/12/15 08:26:34;;;;;;;61.05;32.17;;;179.90;1945.60;;;;;;5056770;28;20064;-69
2020/12/15 08:29:10;;;;;;;52.92;28.38;;;179.90;1945.60;;;;;;5056722;28;20025;-69
2020/12/15 08:31:37;;;;;;;52.38;31.20;;;179.90;1945.60;;;;;;5056696;28;20025;-69
2020/12/15 08:34:17;;;;;;;63.05;32.67;;;179.90;1945.60;;;;;;5038757;28;20040;-68
2020/12/15 08:36:45;;;;;;;47.38;27.33;;;179.90;1945.60;;;;;;5056326;28;20069;-69
2020/12/15 08:39:13;;;;;;;43.33;24.98;;;179.90;1945.60;;;;;;5056357;28;20534;-69
2020/12/15 08:41:52;;;;;;;37.35;18.90;;;179.90;1945.60;;;;;;5056565;28;20053;-69
2020/12/15 08:44:19;;;;;;;50.85;26.35;;;179.90;1945.60;;;;;;5056370;28;20444;-68
2020/12/15 08:46:46;;;;;;;46.60;24.63;;;179.90;1945.60;;;;;;5056279;28;20112;-69
2020/12/15 08:49:13;;;;;;;43.05;22.50;;;180.00;1945.60;;;;;;5056198;28;20026;-69
2020/12/15 08:51:42;;;;;;;46.53;23.48;;;180.00;1945.60;;;;;;5055991;28;20171;-69
2020/12/15 08:54:08;;;;;;;48.22;23.15;;;180.00;1945.60;;;;;;5056129;28;20036;-70
2020/12/15 08:56:34;;;;;;;47.88;22.42;;;180.00;1945.60;;;;;;5056300;28;20037;-69
2020/12/15 08:59:11;;;;;;;53.65;26.65;;;180.00;1945.60;;;;;;5055862;28;20021;-70
2020/12/15 09:01:37;;;;;;;51.30;25.90;;;180.00;1945.60;;;;;;5056212;28;20423;-70
2020/12/15 09:04:03;;;;;;;59.90;29.05;;;180.10;1945.60;;;;;;5055740;28;20421;-69
2020/12/15 09:06:33;;;;;;;53.60;26.48;;;180.10;1945.60;;;;;;5056127;28;20033;-69
2020/12/15 09:08:59;;;;;;;47.90;23.20;;;180.10;1920.00;;;;;;5055955;28;20033;-70
2020/12/15 09:11:25;;;;;;;50.45;24.30;;;180.10;1920.00;;;;;;5055402;28;20090;-69
2020/12/15 09:13:56;;;;;;;52.33;23.90;;;204.80;1920.00;;;;;;5055705;28;20455;-70
2020/12/15 09:16:37;;;;;;;55.63;25.55;;;204.80;1920.00;;;;;;5055799;28;20120;-70
2020/12/15 09:19:15;;;;;;;54.55;25.05;;;204.80;1920.00;;;;;;5055616;28;20036;-69
2020/12/15 09:21:54;;;;;;;51.03;24.17;;;204.90;1945.60;;;;;;5055843;28;20035;-69
2020/12/15 09:24:19;;;;;;;52.60;26.67;;;204.90;1920.00;;;;;;5055785;28;20028;-70
2020/12/15 09:26:45;;;;;;;61.40;30.85;;;204.90;1920.00;;;;;;5055767;28;20032;-70
2020/12/15 09:29:11;;;;;;;58.67;29.45;;;204.90;1920.00;;;;;;5055517;28;20025;-70
2020/12/15 09:31:42;;;;;;;54.40;26.92;;;204.90;1920.00;;;;;;5055688;28;20029;-70
2020/12/15 09:34:07;;;;;;;53.60;26.08;;;204.90;1920.00;;;;;;5056160;28;20413;-70
2020/12/15 09:36:34;;;;;;;62.60;28.45;;;204.90;1920.00;;;;;;5054959;28;20037;-69
2020/12/15 09:39:00;;;;;;;59.95;26.60;;;204.90;1920.00;;;;;;5055450;28;20032;-70
2020/12/15 09:41:25;;;;;;;54.40;26.38;;;205.00;1920.00;;;;;;5054714;28;20390;-71
2020/12/15 09:43:51;;;;;;;57.50;26.55;;;205.00;1920.00;;;;;;5054861;28;20075;-70
2020/12/15 09:46:18;;;;;;;55.08;24.05;;;205.00;1894.40;;;;;;5055170;28;20021;-70
2020/12/15 09:48:45;;;;;;;61.40;26.70;;;205.10;1920.00;;;;;;5055111;28;20124;-69
2020/12/15 09:51:12;;;;;;;56.33;26.98;;;205.10;1920.00;;;;;;5055033;28;20029;-70
2020/12/15 09:53:38;;;;;;;87.30;31.45;;;205.20;1920.00;;;;;;5055137;28;20039;-69
2020/12/15 09:56:03;;;;;;;122.88;48.67;;;205.20;1920.00;;;;;;5054775;28;20411;-70
2020/12/15 09:58:30;;;;;;;86.93;35.80;;;205.10;1920.00;;;;;;5054777;28;20024;-69
2020/12/15 10:00:55;;;;;;;66.13;29.05;;;205.20;1920.00;;;;;;5054939;28;20025;-69
2020/12/15 10:03:21;;;;;;;81.07;35.30;;;205.20;1894.40;;;;;;5054901;28;20025;-69
2020/12/15 10:05:48;;;;;;;65.50;30.58;;;205.20;1920.00;;;;;;5054902;28;20033;-70
2020/12/15 10:08:14;;;;;;;71.63;32.15;;;205.20;1920.00;;;;;;5054673;28;20386;-69
2020/12/15 10:10:40;;;;;;;65.10;28.98;;;205.20;1894.40;;;;;;5054939;28;20374;-69
2020/12/15 10:13:06;;;;;;;61.60;28.35;;;205.30;1894.40;;;;;;5054735;28;20074;-70
2020/12/15 10:15:33;;;;;;;66.25;29.40;;;205.30;1894.40;;;;;;5054577;28;20032;-70
2020/12/15 10:17:59;;;;;;;62.67;30.15;;;205.30;1894.40;;;;;;5054552;28;20052;-70
2020/12/15 10:20:26;;;;;;;60.17;28.67;;;205.30;1894.40;;;;;;5054789;28;20025;-69
2020/12/15 10:22:52;;;;;;;53.40;25.50;;;205.40;1894.40;;;;;;5053390;28;20049;-69
2020/12/15 10:25:19;;;;;;;47.70;23.90;;;205.40;1894.40;;;;;;5054433;28;20036;-70
2020/12/15 10:27:45;;;;;;;54.38;25.02;;;205.30;1894.40;;;;;;5054422;28;20064;-69
2020/12/15 10:30:11;;;;;;;47.90;24.73;;;205.30;1894.40;;;;;;5054269;28;20094;-70
2020/12/15 10:32:37;;;;;;;58.72;28.08;;;205.30;1894.40;;;;;;5054089;28;20025;-70
2020/12/15 10:35:03;;;;;;;53.47;27.27;;;205.30;1920.00;;;;;;5054484;28;20033;-69
2020/12/15 10:37:28;;;;;;;52.58;26.63;;;205.40;1894.40;;;;;;5053995;28;20075;-70
2020/12/15 10:39:54;;;;;;;46.38;23.83;;;205.30;1894.40;;;;;;5054081;28;20025;-70
2020/12/15 10:42:20;;;;;;;49.13;26.08;;;205.30;1894.40;;;;;;5054168;28;20037;-69
2020/12/15 10:44:47;;;;;;;50.80;27.00;;;205.30;1894.40;;;;;;5054029;28;20105;-69
2020/12/15 10:47:13;;;;;;;46.47;25.92;;;205.40;1894.40;;;;;;5053990;28;20036;-70
2020/12/15 10:49:39;;;;;;;45.22;23.48;;;205.40;1894.40;;;;;;5054193;28;20060;-70
2020/12/15 10:52:07;;;;;;;46.08;23.63;;;205.40;1894.40;;;;;;5053797;28;20478;-69
2020/12/15 10:54:33;;;;;;;47.22;24.23;;;205.50;1894.40;;;;;;5035721;28;20048;-70
2020/12/15 10:56:59;;;;;;;51.42;28.40;;;205.40;1894.40;;;;;;5053806;28;20028;-70
2020/12/15 10:59:24;;;;;;;53.10;27.83;;;205.50;1894.40;;;;;;5053940;28;20070;-70
2020/12/15 11:01:51;;;;;;;49.85;26.50;;;205.50;1894.40;;;;;;5053799;28;20106;-69
2020/12/15 11:04:18;;;;;;;44.03;25.30;;;205.50;1868.80;;;;;;5054040;28;20092;-70
2020/12/15 11:06:45;;;;;;;43.38;25.70;;;205.50;1868.80;;;;;;5053945;28;20025;-70
2020/12/15 11:09:14;;;;;;;42.05;23.65;;;205.50;1868.80;;;;;;5035299;28;20029;-70
2020/12/15 11:11:45;;;;;;;39.90;21.92;;;205.60;1868.80;;;;;;5053849;28;20055;-70
2020/12/15 11:14:11;;;;;;;38.47;21.30;;;205.60;1868.80;;;;;;5053630;28;20029;-70
2020/12/15 11:16:36;;;;;;;37.92;20.25;;;205.60;1868.80;;;;;;5053505;28;20124;-70
2020/12/15 11:19:03;;;;;;;36.80;21.38;;;205.60;1868.80;;;;;;5053717;28;20048;-70
2020/12/15 11:21:28;;;;;;;36.13;22.02;;;205.60;1868.80;;;;;;5053729;28;20435;-70
2020/12/15 11:23:54;;;;;;;39.25;21.50;;;205.50;1868.80;;;;;;5053902;28;20025;-70
2020/12/15 11:26:20;;;;;;;36.92;20.75;;;205.60;1868.80;;;;;;5053859;28;20426;-70
2020/12/15 11:28:46;;;;;;;33.72;19.15;;;205.50;1868.80;;;;;;5053792;28;20465;-70
2020/12/15 11:31:12;;;;;;;35.83;21.70;;;205.60;1868.80;;;;;;5053641;28;20017;-70
2020/12/15 11:33:39;;;;;;;32.75;19.92;;;205.60;1868.80;;;;;;5053554;28;20531;-69
2020/12/15 11:36:05;;;;;;;32.90;20.58;;;205.60;1868.80;;;;;;5038878;28;20107;-70
2020/12/15 11:38:31;;;;;;;34.97;19.58;;;205.70;1868.80;;;;;;5057381;28;20082;-70
2020/12/15 11:40:57;;;;;;;38.63;21.05;;;205.70;1843.20;;;;;;5057384;28;20049;-70
2020/12/15 11:43:22;;;;;;;41.28;22.70;;;205.70;1843.20;;;;;;5057493;28;20079;-70
2020/12/15 11:45:48;;;;;;;37.72;22.98;;;205.70;1843.20;;;;;;5057676;28;20036;-70
2020/12/15 11:48:14;;;;;;;39.20;23.90;;;205.70;1843.20;;;;;;5057376;28;20021;-70
2020/12/15 11:50:40;;;;;;;32.95;18.55;;;205.70;1843.20;;;;;;5057749;28;20032;-70
2020/12/15 11:53:05;;;;;;;33.30;18.58;;;205.70;1843.20;;;;;;5057579;28;20082;-69
2020/12/15 11:55:31;;;;;;;32.38;20.08;;;205.70;1843.20;;;;;;5039295;28;20029;-70
2020/12/15 11:57:57;;;;;;;38.55;20.90;;;205.70;1843.20;;;;;;5056907;28;20033;-70
2020/12/15 12:00:23;;;;;;;31.80;19.70;;;205.70;1843.20;;;;;;5057001;28;20467;-70